sensor_id;sensor_type;location;lat;lon;timestamp;P1;durP1;ratioP1;P2;durP2;ratioP2
39362;SDS011;25088;43.238;23.110;2023-02-01T00:01:16;0.40;;;0.40;;
39362;SDS011;25088;43.238;23.110;2023-02-01T00:03:42;0.40;;;0.40;;
39362;SDS011;25088;43.238;23.110;2023-02-01T00:06:07;0.40;;;0.40;;
39362;SDS011;25088;43.238;23.110;2023-02-01T00:08:33;0.43;;;0.43;;
39362;SDS011;25088;43.238;23.110;2023-02-01T00:11:18;0.40;;;0.40;;
39362;SDS011;25088;43.238;23.110;2023-02-01T00:13:43;0.40;;;0.40;;
39362;SDS011;25088;43.238;23.110;2023-02-01T00:16:19;0.40;;;0.40;;
39362;SDS011;25088;43.238;23.110;2023-02-01T00:18:47;0.50;;;0.50;;
39362;SDS011;25088;43.238;23.110;2023-02-01T00:21:15;0.40;;;0.40;;
39362;SDS011;25088;43.238;23.110;2023-02-01T00:23:41;0.50;;;0.50;;
39362;SDS011;25088;43.238;23.110;2023-02-01T00:26:10;0.40;;;0.40;;
39362;SDS011;25088;43.238;23.110;2023-02-01T00:28:45;0.40;;;0.40;;
39362;SDS011;25088;43.238;23.110;2023-02-01T00:31:11;0.40;;;0.40;;
39362;SDS011;25088;43.238;23.110;2023-02-01T00:33:36;0.40;;;0.40;;
39362;SDS011;25088;43.238;23.110;2023-02-01T00:36:04;0.40;;;0.40;;
39362;SDS011;25088;43.238;23.110;2023-02-01T00:38:32;0.40;;;0.40;;
39362;SDS011;25088;43.238;23.110;2023-02-01T00:41:02;0.40;;;0.40;;
39362;SDS011;25088;43.238;23.110;2023-02-01T00:43:30;0.50;;;0.50;;
39362;SDS011;25088;43.238;23.110;2023-02-01T00:45:56;0.50;;;0.50;;
39362;SDS011;25088;43.238;23.110;2023-02-01T00:48:22;0.40;;;0.40;;
39362;SDS011;25088;43.238;23.110;2023-02-01T00:50:47;0.40;;;0.40;;
39362;SDS011;25088;43.238;23.110;2023-02-01T00:53:13;0.50;;;0.50;;
39362;SDS011;25088;43.238;23.110;2023-02-01T00:55:38;0.50;;;0.50;;
39362;SDS011;25088;43.238;23.110;2023-02-01T00:58:04;0.50;;;0.50;;
39362;SDS011;25088;43.238;23.110;2023-02-01T01:00:31;0.50;;;0.50;;
39362;SDS011;25088;43.238;23.110;2023-02-01T01:02:57;0.50;;;0.50;;
39362;SDS011;25088;43.238;23.110;2023-02-01T01:05:23;0.50;;;0.50;;
39362;SDS011;25088;43.238;23.110;2023-02-01T01:07:49;0.50;;;0.50;;
39362;SDS011;25088;43.238;23.110;2023-02-01T01:10:14;0.50;;;0.50;;
39362;SDS011;25088;43.238;23.110;2023-02-01T01:12:40;0.50;;;0.50;;
39362;SDS011;25088;43.238;23.110;2023-02-01T01:15:06;0.50;;;0.50;;
39362;SDS011;25088;43.238;23.110;2023-02-01T01:17:32;0.50;;;0.50;;
39362;SDS011;25088;43.238;23.110;2023-02-01T01:19:58;0.50;;;0.50;;
39362;SDS011;25088;43.238;23.110;2023-02-01T01:22:23;0.50;;;0.50;;
39362;SDS011;25088;43.238;23.110;2023-02-01T01:24:49;0.50;;;0.50;;
39362;SDS011;25088;43.238;23.110;2023-02-01T01:27:14;0.50;;;0.50;;
39362;SDS011;25088;43.238;23.110;2023-02-01T01:29:40;0.50;;;0.50;;
39362;SDS011;25088;43.238;23.110;2023-02-01T01:32:05;0.50;;;0.50;;
39362;SDS011;25088;43.238;23.110;2023-02-01T01:34:31;0.50;;;0.50;;
39362;SDS011;25088;43.238;23.110;2023-02-01T01:36:56;0.50;;;0.50;;
39362;SDS011;25088;43.238;23.110;2023-02-01T01:39:22;0.50;;;0.50;;
39362;SDS011;25088;43.238;23.110;2023-02-01T01:41:47;0.50;;;0.50;;
39362;SDS011;25088;43.238;23.110;2023-02-01T01:47:15;0.50;;;0.50;;
39362;SDS011;25088;43.238;23.110;2023-02-01T01:49:41;0.50;;;0.50;;
39362;SDS011;25088;43.238;23.110;2023-02-01T01:52:07;0.50;;;0.50;;
39362;SDS011;25088;43.238;23.110;2023-02-01T01:54:43;0.50;;;0.50;;
39362;SDS011;25088;43.238;23.110;2023-02-01T01:57:14;0.47;;;0.47;;
39362;SDS011;25088;43.238;23.110;2023-02-01T01:59:46;0.40;;;0.40;;
39362;SDS011;25088;43.238;23.110;2023-02-01T02:02:18;0.40;;;0.40;;
39362;SDS011;25088;43.238;23.110;2023-02-01T02:04:43;0.50;;;0.50;;
39362;SDS011;25088;43.238;23.110;2023-02-01T02:07:10;0.50;;;0.50;;
39362;SDS011;25088;43.238;23.110;2023-02-01T02:09:40;0.40;;;0.40;;
39362;SDS011;25088;43.238;23.110;2023-02-01T02:12:07;0.40;;;0.40;;
39362;SDS011;25088;43.238;23.110;2023-02-01T02:14:33;0.40;;;0.40;;
39362;SDS011;25088;43.238;23.110;2023-02-01T02:17:03;0.40;;;0.40;;
39362;SDS011;25088;43.238;23.110;2023-02-01T02:47:24;0.40;;;0.40;;
39362;SDS011;25088;43.238;23.110;2023-02-01T02:50:17;0.40;;;0.40;;
39362;SDS011;25088;43.238;23.110;2023-02-01T02:53:18;0.40;;;0.40;;
39362;SDS011;25088;43.238;23.110;2023-02-01T02:56:06;0.45;;;0.45;;
39362;SDS011;25088;43.238;23.110;2023-02-01T02:58:53;0.40;;;0.40;;
39362;SDS011;25088;43.238;23.110;2023-02-01T03:01:38;0.40;;;0.40;;
39362;SDS011;25088;43.238;23.110;2023-02-01T03:04:23;0.40;;;0.40;;
39362;SDS011;25088;43.238;23.110;2023-02-01T03:06:51;0.40;;;0.40;;
39362;SDS011;25088;43.238;23.110;2023-02-01T03:09:21;0.40;;;0.40;;
39362;SDS011;25088;43.238;23.110;2023-02-01T03:11:52;0.40;;;0.40;;
39362;SDS011;25088;43.238;23.110;2023-02-01T03:17:13;0.40;;;0.40;;
39362;SDS011;25088;43.238;23.110;2023-02-01T03:19:43;0.40;;;0.40;;
39362;SDS011;25088;43.238;23.110;2023-02-01T03:22:19;0.40;;;0.40;;
39362;SDS011;25088;43.238;23.110;2023-02-01T03:24:49;0.40;;;0.40;;
39362;SDS011;25088;43.238;23.110;2023-02-01T03:29:54;0.40;;;0.40;;
39362;SDS011;25088;43.238;23.110;2023-02-01T03:32:25;0.40;;;0.40;;
39362;SDS011;25088;43.238;23.110;2023-02-01T03:34:51;0.30;;;0.30;;
39362;SDS011;25088;43.238;23.110;2023-02-01T03:37:25;0.40;;;0.40;;
39362;SDS011;25088;43.238;23.110;2023-02-01T03:42:24;0.40;;;0.40;;
39362;SDS011;25088;43.238;23.110;2023-02-01T03:47:39;0.40;;;0.40;;
39362;SDS011;25088;43.238;23.110;2023-02-01T03:50:13;0.40;;;0.40;;
39362;SDS011;25088;43.238;23.110;2023-02-01T03:52:45;0.40;;;0.40;;
39362;SDS011;25088;43.238;23.110;2023-02-01T03:55:17;0.40;;;0.40;;
39362;SDS011;25088;43.238;23.110;2023-02-01T03:57:52;0.40;;;0.40;;
39362;SDS011;25088;43.238;23.110;2023-02-01T04:00:23;0.40;;;0.40;;
39362;SDS011;25088;43.238;23.110;2023-02-01T04:02:50;0.40;;;0.40;;
39362;SDS011;25088;43.238;23.110;2023-02-01T04:05:17;0.40;;;0.40;;
39362;SDS011;25088;43.238;23.110;2023-02-01T04:07:42;0.40;;;0.40;;
39362;SDS011;25088;43.238;23.110;2023-02-01T04:10:08;0.40;;;0.40;;
39362;SDS011;25088;43.238;23.110;2023-02-01T04:12:34;0.40;;;0.40;;
39362;SDS011;25088;43.238;23.110;2023-02-01T04:15:00;0.40;;;0.40;;
39362;SDS011;25088;43.238;23.110;2023-02-01T04:17:25;0.40;;;0.40;;
39362;SDS011;25088;43.238;23.110;2023-02-01T04:19:51;0.30;;;0.30;;
39362;SDS011;25088;43.238;23.110;2023-02-01T04:22:16;0.40;;;0.40;;
39362;SDS011;25088;43.238;23.110;2023-02-01T04:24:42;0.40;;;0.40;;
39362;SDS011;25088;43.238;23.110;2023-02-01T04:27:07;0.40;;;0.40;;
39362;SDS011;25088;43.238;23.110;2023-02-01T04:29:33;0.40;;;0.40;;
39362;SDS011;25088;43.238;23.110;2023-02-01T04:31:58;0.40;;;0.40;;
39362;SDS011;25088;43.238;23.110;2023-02-01T04:34:24;0.40;;;0.40;;
39362;SDS011;25088;43.238;23.110;2023-02-01T04:36:50;0.40;;;0.40;;
39362;SDS011;25088;43.238;23.110;2023-02-01T04:39:16;0.40;;;0.40;;
39362;SDS011;25088;43.238;23.110;2023-02-01T04:41:41;0.40;;;0.40;;
39362;SDS011;25088;43.238;23.110;2023-02-01T04:44:08;0.40;;;0.40;;
39362;SDS011;25088;43.238;23.110;2023-02-01T04:46:38;0.40;;;0.40;;
39362;SDS011;25088;43.238;23.110;2023-02-01T04:49:03;0.38;;;0.38;;
39362;SDS011;25088;43.238;23.110;2023-02-01T04:51:29;0.40;;;0.40;;
39362;SDS011;25088;43.238;23.110;2023-02-01T04:53:55;0.30;;;0.30;;
39362;SDS011;25088;43.238;23.110;2023-02-01T04:56:21;0.38;;;0.38;;
39362;SDS011;25088;43.238;23.110;2023-02-01T04:58:46;0.40;;;0.40;;
39362;SDS011;25088;43.238;23.110;2023-02-01T05:01:12;0.30;;;0.30;;
39362;SDS011;25088;43.238;23.110;2023-02-01T05:03:37;0.40;;;0.40;;
39362;SDS011;25088;43.238;23.110;2023-02-01T05:06:03;0.32;;;0.32;;
39362;SDS011;25088;43.238;23.110;2023-02-01T05:08:30;0.40;;;0.40;;
39362;SDS011;25088;43.238;23.110;2023-02-01T05:10:56;0.30;;;0.30;;
39362;SDS011;25088;43.238;23.110;2023-02-01T05:13:21;0.30;;;0.30;;
39362;SDS011;25088;43.238;23.110;2023-02-01T05:16:05;0.30;;;0.30;;
39362;SDS011;25088;43.238;23.110;2023-02-01T05:18:32;0.30;;;0.30;;
39362;SDS011;25088;43.238;23.110;2023-02-01T05:20:57;0.30;;;0.30;;
39362;SDS011;25088;43.238;23.110;2023-02-01T05:23:22;0.40;;;0.40;;
39362;SDS011;25088;43.238;23.110;2023-02-01T05:25:48;0.35;;;0.35;;
39362;SDS011;25088;43.238;23.110;2023-02-01T05:28:13;0.30;;;0.30;;
39362;SDS011;25088;43.238;23.110;2023-02-01T05:30:39;0.30;;;0.30;;
39362;SDS011;25088;43.238;23.110;2023-02-01T05:33:04;0.30;;;0.30;;
39362;SDS011;25088;43.238;23.110;2023-02-01T05:35:30;0.40;;;0.40;;
39362;SDS011;25088;43.238;23.110;2023-02-01T05:37:55;0.40;;;0.40;;
39362;SDS011;25088;43.238;23.110;2023-02-01T05:40:21;0.30;;;0.30;;
39362;SDS011;25088;43.238;23.110;2023-02-01T05:42:46;0.30;;;0.30;;
39362;SDS011;25088;43.238;23.110;2023-02-01T05:45:12;0.30;;;0.30;;
39362;SDS011;25088;43.238;23.110;2023-02-01T05:47:37;0.30;;;0.30;;
39362;SDS011;25088;43.238;23.110;2023-02-01T05:50:04;0.30;;;0.30;;
39362;SDS011;25088;43.238;23.110;2023-02-01T05:52:30;0.30;;;0.30;;
39362;SDS011;25088;43.238;23.110;2023-02-01T05:54:56;0.30;;;0.30;;
39362;SDS011;25088;43.238;23.110;2023-02-01T05:57:21;0.30;;;0.30;;
39362;SDS011;25088;43.238;23.110;2023-02-01T05:59:47;0.40;;;0.40;;
39362;SDS011;25088;43.238;23.110;2023-02-01T06:02:13;0.30;;;0.30;;
39362;SDS011;25088;43.238;23.110;2023-02-01T06:04:39;0.30;;;0.30;;
39362;SDS011;25088;43.238;23.110;2023-02-01T06:07:05;0.30;;;0.30;;
39362;SDS011;25088;43.238;23.110;2023-02-01T06:09:33;0.40;;;0.40;;
39362;SDS011;25088;43.238;23.110;2023-02-01T06:11:59;0.40;;;0.40;;
39362;SDS011;25088;43.238;23.110;2023-02-01T06:14:26;0.30;;;0.30;;
39362;SDS011;25088;43.238;23.110;2023-02-01T06:16:52;0.30;;;0.30;;
39362;SDS011;25088;43.238;23.110;2023-02-01T06:19:19;0.30;;;0.30;;
39362;SDS011;25088;43.238;23.110;2023-02-01T06:21:44;0.40;;;0.40;;
39362;SDS011;25088;43.238;23.110;2023-02-01T06:24:09;0.30;;;0.30;;
39362;SDS011;25088;43.238;23.110;2023-02-01T06:26:35;0.30;;;0.30;;
39362;SDS011;25088;43.238;23.110;2023-02-01T06:29:01;0.30;;;0.30;;
39362;SDS011;25088;43.238;23.110;2023-02-01T06:31:26;0.40;;;0.40;;
39362;SDS011;25088;43.238;23.110;2023-02-01T06:33:52;0.40;;;0.40;;
39362;SDS011;25088;43.238;23.110;2023-02-01T06:36:18;0.30;;;0.30;;
39362;SDS011;25088;43.238;23.110;2023-02-01T06:38:46;0.30;;;0.30;;
39362;SDS011;25088;43.238;23.110;2023-02-01T06:41:13;0.30;;;0.30;;
39362;SDS011;25088;43.238;23.110;2023-02-01T06:43:38;0.30;;;0.30;;
39362;SDS011;25088;43.238;23.110;2023-02-01T06:46:05;0.35;;;0.35;;
39362;SDS011;25088;43.238;23.110;2023-02-01T06:48:32;0.40;;;0.40;;
39362;SDS011;25088;43.238;23.110;2023-02-01T06:50:58;0.30;;;0.30;;
39362;SDS011;25088;43.238;23.110;2023-02-01T06:53:24;0.30;;;0.30;;
39362;SDS011;25088;43.238;23.110;2023-02-01T06:55:53;0.30;;;0.30;;
39362;SDS011;25088;43.238;23.110;2023-02-01T06:58:20;0.38;;;0.38;;
39362;SDS011;25088;43.238;23.110;2023-02-01T07:00:46;0.30;;;0.30;;
39362;SDS011;25088;43.238;23.110;2023-02-01T07:03:11;0.30;;;0.30;;
39362;SDS011;25088;43.238;23.110;2023-02-01T07:05:37;0.30;;;0.30;;
39362;SDS011;25088;43.238;23.110;2023-02-01T07:08:02;0.30;;;0.30;;
39362;SDS011;25088;43.238;23.110;2023-02-01T07:10:28;0.30;;;0.30;;
39362;SDS011;25088;43.238;23.110;2023-02-01T07:12:56;0.30;;;0.30;;
39362;SDS011;25088;43.238;23.110;2023-02-01T07:15:22;0.30;;;0.30;;
39362;SDS011;25088;43.238;23.110;2023-02-01T07:17:47;0.30;;;0.30;;
39362;SDS011;25088;43.238;23.110;2023-02-01T07:20:14;0.30;;;0.30;;
39362;SDS011;25088;43.238;23.110;2023-02-01T07:22:40;0.30;;;0.30;;
39362;SDS011;25088;43.238;23.110;2023-02-01T07:25:05;0.30;;;0.30;;
39362;SDS011;25088;43.238;23.110;2023-02-01T07:27:33;0.30;;;0.30;;
39362;SDS011;25088;43.238;23.110;2023-02-01T07:29:59;0.30;;;0.30;;
39362;SDS011;25088;43.238;23.110;2023-02-01T07:32:27;0.30;;;0.30;;
39362;SDS011;25088;43.238;23.110;2023-02-01T07:34:53;0.30;;;0.30;;
39362;SDS011;25088;43.238;23.110;2023-02-01T07:37:18;0.30;;;0.30;;
39362;SDS011;25088;43.238;23.110;2023-02-01T07:39:44;0.20;;;0.20;;
39362;SDS011;25088;43.238;23.110;2023-02-01T07:42:09;0.30;;;0.30;;
39362;SDS011;25088;43.238;23.110;2023-02-01T07:44:35;0.30;;;0.30;;
39362;SDS011;25088;43.238;23.110;2023-02-01T07:47:00;0.30;;;0.30;;
39362;SDS011;25088;43.238;23.110;2023-02-01T07:49:25;0.20;;;0.20;;
39362;SDS011;25088;43.238;23.110;2023-02-01T07:51:51;0.20;;;0.20;;
39362;SDS011;25088;43.238;23.110;2023-02-01T07:54:17;0.20;;;0.20;;
39362;SDS011;25088;43.238;23.110;2023-02-01T07:56:42;0.25;;;0.25;;
39362;SDS011;25088;43.238;23.110;2023-02-01T07:59:08;0.20;;;0.20;;
39362;SDS011;25088;43.238;23.110;2023-02-01T08:01:33;0.20;;;0.20;;
39362;SDS011;25088;43.238;23.110;2023-02-01T08:04:00;0.20;;;0.20;;
39362;SDS011;25088;43.238;23.110;2023-02-01T08:06:27;0.20;;;0.20;;
39362;SDS011;25088;43.238;23.110;2023-02-01T08:08:56;0.20;;;0.20;;
39362;SDS011;25088;43.238;23.110;2023-02-01T08:11:22;0.20;;;0.20;;
39362;SDS011;25088;43.238;23.110;2023-02-01T08:13:49;0.25;;;0.25;;
39362;SDS011;25088;43.238;23.110;2023-02-01T08:16:15;0.20;;;0.20;;
39362;SDS011;25088;43.238;23.110;2023-02-01T08:18:42;0.20;;;0.20;;
39362;SDS011;25088;43.238;23.110;2023-02-01T08:21:09;0.20;;;0.20;;
39362;SDS011;25088;43.238;23.110;2023-02-01T08:23:45;0.20;;;0.20;;
39362;SDS011;25088;43.238;23.110;2023-02-01T08:26:12;0.20;;;0.20;;
39362;SDS011;25088;43.238;23.110;2023-02-01T08:28:50;0.20;;;0.20;;
39362;SDS011;25088;43.238;23.110;2023-02-01T08:31:18;0.20;;;0.20;;
39362;SDS011;25088;43.238;23.110;2023-02-01T08:33:48;0.20;;;0.20;;
39362;SDS011;25088;43.238;23.110;2023-02-01T08:36:15;0.20;;;0.20;;
39362;SDS011;25088;43.238;23.110;2023-02-01T08:38:40;0.20;;;0.20;;
39362;SDS011;25088;43.238;23.110;2023-02-01T08:41:07;0.20;;;0.20;;
39362;SDS011;25088;43.238;23.110;2023-02-01T08:43:34;0.20;;;0.20;;
39362;SDS011;25088;43.238;23.110;2023-02-01T08:46:00;0.20;;;0.20;;
39362;SDS011;25088;43.238;23.110;2023-02-01T08:48:26;0.20;;;0.20;;
39362;SDS011;25088;43.238;23.110;2023-02-01T08:50:52;0.20;;;0.20;;
39362;SDS011;25088;43.238;23.110;2023-02-01T08:53:17;0.20;;;0.20;;
39362;SDS011;25088;43.238;23.110;2023-02-01T08:55:44;0.20;;;0.20;;
39362;SDS011;25088;43.238;23.110;2023-02-01T08:58:11;0.20;;;0.20;;
39362;SDS011;25088;43.238;23.110;2023-02-01T09:00:38;0.20;;;0.20;;
39362;SDS011;25088;43.238;23.110;2023-02-01T09:03:04;0.20;;;0.20;;
39362;SDS011;25088;43.238;23.110;2023-02-01T09:05:30;0.20;;;0.20;;
39362;SDS011;25088;43.238;23.110;2023-02-01T09:07:56;0.20;;;0.20;;
39362;SDS011;25088;43.238;23.110;2023-02-01T09:10:21;0.20;;;0.20;;
39362;SDS011;25088;43.238;23.110;2023-02-01T09:12:47;0.10;;;0.10;;
39362;SDS011;25088;43.238;23.110;2023-02-01T09:15:12;0.20;;;0.20;;
39362;SDS011;25088;43.238;23.110;2023-02-01T09:17:38;0.10;;;0.10;;
39362;SDS011;25088;43.238;23.110;2023-02-01T09:20:04;0.10;;;0.10;;
39362;SDS011;25088;43.238;23.110;2023-02-01T09:22:30;0.10;;;0.10;;
39362;SDS011;25088;43.238;23.110;2023-02-01T09:24:55;0.10;;;0.10;;
39362;SDS011;25088;43.238;23.110;2023-02-01T09:27:21;0.10;;;0.10;;
39362;SDS011;25088;43.238;23.110;2023-02-01T09:29:47;0.10;;;0.10;;
39362;SDS011;25088;43.238;23.110;2023-02-01T09:32:17;0.10;;;0.10;;
39362;SDS011;25088;43.238;23.110;2023-02-01T09:34:46;0.10;;;0.10;;
39362;SDS011;25088;43.238;23.110;2023-02-01T09:37:11;0.10;;;0.10;;
39362;SDS011;25088;43.238;23.110;2023-02-01T09:39:37;0.10;;;0.10;;
39362;SDS011;25088;43.238;23.110;2023-02-01T09:42:08;0.10;;;0.10;;
39362;SDS011;25088;43.238;23.110;2023-02-01T09:47:24;0.10;;;0.10;;
39362;SDS011;25088;43.238;23.110;2023-02-01T09:55:34;0.10;;;0.10;;
39362;SDS011;25088;43.238;23.110;2023-02-01T09:58:09;0.10;;;0.10;;
39362;SDS011;25088;43.238;23.110;2023-02-01T10:01:19;0.10;;;0.10;;
39362;SDS011;25088;43.238;23.110;2023-02-01T10:03:48;0.10;;;0.10;;
39362;SDS011;25088;43.238;23.110;2023-02-01T10:12:17;0.10;;;0.10;;
39362;SDS011;25088;43.238;23.110;2023-02-01T10:23:04;0.03;;;0.03;;
39362;SDS011;25088;43.238;23.110;2023-02-01T10:25:55;0.10;;;0.10;;
39362;SDS011;25088;43.238;23.110;2023-02-01T10:28:24;0.10;;;0.10;;
39362;SDS011;25088;43.238;23.110;2023-02-01T10:30:51;0.10;;;0.10;;
39362;SDS011;25088;43.238;23.110;2023-02-01T10:33:24;0.10;;;0.10;;
39362;SDS011;25088;43.238;23.110;2023-02-01T10:36:04;0.10;;;0.10;;
39362;SDS011;25088;43.238;23.110;2023-02-01T10:38:42;0.10;;;0.10;;
39362;SDS011;25088;43.238;23.110;2023-02-01T10:41:12;0.10;;;0.10;;
39362;SDS011;25088;43.238;23.110;2023-02-01T10:43:48;0.20;;;0.20;;
39362;SDS011;25088;43.238;23.110;2023-02-01T10:46:16;0.10;;;0.10;;
39362;SDS011;25088;43.238;23.110;2023-02-01T10:48:42;0.10;;;0.10;;
39362;SDS011;25088;43.238;23.110;2023-02-01T10:51:15;0.10;;;0.10;;
39362;SDS011;25088;43.238;23.110;2023-02-01T10:53:55;0.10;;;0.10;;
39362;SDS011;25088;43.238;23.110;2023-02-01T10:56:26;0.10;;;0.10;;
39362;SDS011;25088;43.238;23.110;2023-02-01T10:58:59;0.10;;;0.10;;
39362;SDS011;25088;43.238;23.110;2023-02-01T11:01:41;0.10;;;0.10;;
39362;SDS011;25088;43.238;23.110;2023-02-01T11:04:10;0.00;;;0.00;;
39362;SDS011;25088;43.238;23.110;2023-02-01T11:06:39;0.10;;;0.10;;
39362;SDS011;25088;43.238;23.110;2023-02-01T11:11:32;0.10;;;0.10;;
39362;SDS011;25088;43.238;23.110;2023-02-01T11:14:20;0.10;;;0.10;;
39362;SDS011;25088;43.238;23.110;2023-02-01T11:16:57;0.10;;;0.10;;
39362;SDS011;25088;43.238;23.110;2023-02-01T11:19:25;0.10;;;0.10;;
39362;SDS011;25088;43.238;23.110;2023-02-01T11:21:51;0.10;;;0.10;;
39362;SDS011;25088;43.238;23.110;2023-02-01T11:24:26;0.10;;;0.10;;
39362;SDS011;25088;43.238;23.110;2023-02-01T11:26:57;0.10;;;0.10;;
39362;SDS011;25088;43.238;23.110;2023-02-01T11:29:35;0.10;;;0.10;;
39362;SDS011;25088;43.238;23.110;2023-02-01T11:32:03;0.10;;;0.10;;
39362;SDS011;25088;43.238;23.110;2023-02-01T11:37:14;0.10;;;0.10;;
39362;SDS011;25088;43.238;23.110;2023-02-01T11:39:53;0.10;;;0.10;;
39362;SDS011;25088;43.238;23.110;2023-02-01T11:42:38;0.10;;;0.10;;
39362;SDS011;25088;43.238;23.110;2023-02-01T11:45:27;0.10;;;0.10;;
39362;SDS011;25088;43.238;23.110;2023-02-01T11:47:57;0.10;;;0.10;;
39362;SDS011;25088;43.238;23.110;2023-02-01T11:59:27;0.10;;;0.10;;
39362;SDS011;25088;43.238;23.110;2023-02-01T12:05:13;0.10;;;0.10;;
39362;SDS011;25088;43.238;23.110;2023-02-01T12:12:51;0.10;;;0.10;;
39362;SDS011;25088;43.238;23.110;2023-02-01T12:26:46;0.10;;;0.10;;
39362;SDS011;25088;43.238;23.110;2023-02-01T12:37:38;0.10;;;0.10;;
39362;SDS011;25088;43.238;23.110;2023-02-01T12:53:55;0.10;;;0.10;;
39362;SDS011;25088;43.238;23.110;2023-02-01T12:56:38;0.10;;;0.10;;
39362;SDS011;25088;43.238;23.110;2023-02-01T12:59:17;0.10;;;0.10;;
39362;SDS011;25088;43.238;23.110;2023-02-01T13:01:53;0.10;;;0.10;;
39362;SDS011;25088;43.238;23.110;2023-02-01T13:07:04;0.10;;;0.10;;
39362;SDS011;25088;43.238;23.110;2023-02-01T13:12:19;0.10;;;0.10;;
39362;SDS011;25088;43.238;23.110;2023-02-01T13:14:53;0.10;;;0.10;;
39362;SDS011;25088;43.238;23.110;2023-02-01T13:17:29;0.10;;;0.10;;
39362;SDS011;25088;43.238;23.110;2023-02-01T13:22:42;0.10;;;0.10;;
39362;SDS011;25088;43.238;23.110;2023-02-01T13:27:56;0.13;;;0.13;;
39362;SDS011;25088;43.238;23.110;2023-02-01T13:30:30;0.10;;;0.10;;
39362;SDS011;25088;43.238;23.110;2023-02-01T13:33:12;0.10;;;0.10;;
39362;SDS011;25088;43.238;23.110;2023-02-01T13:39:03;0.10;;;0.10;;
39362;SDS011;25088;43.238;23.110;2023-02-01T13:41:49;0.10;;;0.10;;
39362;SDS011;25088;43.238;23.110;2023-02-01T13:44:26;0.10;;;0.10;;
39362;SDS011;25088;43.238;23.110;2023-02-01T13:46:58;0.10;;;0.10;;
39362;SDS011;25088;43.238;23.110;2023-02-01T13:49:30;0.10;;;0.10;;
39362;SDS011;25088;43.238;23.110;2023-02-01T13:52:02;0.10;;;0.10;;
39362;SDS011;25088;43.238;23.110;2023-02-01T13:54:39;0.10;;;0.10;;
39362;SDS011;25088;43.238;23.110;2023-02-01T13:57:06;0.10;;;0.10;;
39362;SDS011;25088;43.238;23.110;2023-02-01T14:00:06;0.10;;;0.10;;
39362;SDS011;25088;43.238;23.110;2023-02-01T14:08:03;0.10;;;0.10;;
39362;SDS011;25088;43.238;23.110;2023-02-01T14:10:55;0.10;;;0.10;;
39362;SDS011;25088;43.238;23.110;2023-02-01T14:13:30;0.10;;;0.10;;
39362;SDS011;25088;43.238;23.110;2023-02-01T14:23:48;0.10;;;0.10;;
39362;SDS011;25088;43.238;23.110;2023-02-01T14:29:01;0.10;;;0.10;;
39362;SDS011;25088;43.238;23.110;2023-02-01T14:36:57;0.10;;;0.10;;
39362;SDS011;25088;43.238;23.110;2023-02-01T14:44:57;0.10;;;0.10;;
39362;SDS011;25088;43.238;23.110;2023-02-01T14:47:44;0.10;;;0.10;;
39362;SDS011;25088;43.238;23.110;2023-02-01T14:55:33;0.10;;;0.10;;
39362;SDS011;25088;43.238;23.110;2023-02-01T15:01:32;0.15;;;0.15;;
39362;SDS011;25088;43.238;23.110;2023-02-01T15:06:24;0.10;;;0.10;;
39362;SDS011;25088;43.238;23.110;2023-02-01T15:09:09;0.20;;;0.20;;
39362;SDS011;25088;43.238;23.110;2023-02-01T15:14:30;0.20;;;0.20;;
39362;SDS011;25088;43.238;23.110;2023-02-01T15:17:02;0.20;;;0.20;;
39362;SDS011;25088;43.238;23.110;2023-02-01T15:19:41;0.10;;;0.10;;
39362;SDS011;25088;43.238;23.110;2023-02-01T15:22:18;0.20;;;0.20;;
39362;SDS011;25088;43.238;23.110;2023-02-01T15:24:51;0.20;;;0.20;;
39362;SDS011;25088;43.238;23.110;2023-02-01T15:27:17;0.20;;;0.20;;
39362;SDS011;25088;43.238;23.110;2023-02-01T15:29:43;0.20;;;0.20;;
39362;SDS011;25088;43.238;23.110;2023-02-01T15:32:27;0.20;;;0.20;;
39362;SDS011;25088;43.238;23.110;2023-02-01T15:34:57;0.20;;;0.20;;
39362;SDS011;25088;43.238;23.110;2023-02-01T15:37:25;0.20;;;0.20;;
39362;SDS011;25088;43.238;23.110;2023-02-01T15:42:36;0.20;;;0.20;;
39362;SDS011;25088;43.238;23.110;2023-02-01T15:45:15;0.20;;;0.20;;
39362;SDS011;25088;43.238;23.110;2023-02-01T15:47:42;0.20;;;0.20;;
39362;SDS011;25088;43.238;23.110;2023-02-01T15:50:15;0.30;;;0.30;;
39362;SDS011;25088;43.238;23.110;2023-02-01T15:52:41;0.20;;;0.20;;
39362;SDS011;25088;43.238;23.110;2023-02-01T15:55:08;0.30;;;0.30;;
39362;SDS011;25088;43.238;23.110;2023-02-01T15:57:49;0.30;;;0.30;;
39362;SDS011;25088;43.238;23.110;2023-02-01T16:00:26;0.30;;;0.30;;
39362;SDS011;25088;43.238;23.110;2023-02-01T16:02:55;0.30;;;0.30;;
39362;SDS011;25088;43.238;23.110;2023-02-01T16:10:40;0.30;;;0.30;;
39362;SDS011;25088;43.238;23.110;2023-02-01T16:13:11;0.30;;;0.30;;
39362;SDS011;25088;43.238;23.110;2023-02-01T16:15:37;0.30;;;0.30;;
39362;SDS011;25088;43.238;23.110;2023-02-01T16:18:04;0.30;;;0.30;;
39362;SDS011;25088;43.238;23.110;2023-02-01T16:20:30;0.20;;;0.20;;
39362;SDS011;25088;43.238;23.110;2023-02-01T16:22:56;0.20;;;0.20;;
39362;SDS011;25088;43.238;23.110;2023-02-01T16:25:21;0.30;;;0.30;;
39362;SDS011;25088;43.238;23.110;2023-02-01T16:27:47;0.20;;;0.20;;
39362;SDS011;25088;43.238;23.110;2023-02-01T16:30:13;0.20;;;0.20;;
39362;SDS011;25088;43.238;23.110;2023-02-01T16:32:39;0.30;;;0.30;;
39362;SDS011;25088;43.238;23.110;2023-02-01T16:35:05;0.30;;;0.30;;
39362;SDS011;25088;43.238;23.110;2023-02-01T16:37:38;0.30;;;0.30;;
39362;SDS011;25088;43.238;23.110;2023-02-01T16:40:04;0.30;;;0.30;;
39362;SDS011;25088;43.238;23.110;2023-02-01T16:42:30;0.30;;;0.30;;
39362;SDS011;25088;43.238;23.110;2023-02-01T16:44:56;0.20;;;0.20;;
39362;SDS011;25088;43.238;23.110;2023-02-01T16:47:21;0.30;;;0.30;;
39362;SDS011;25088;43.238;23.110;2023-02-01T16:49:48;0.30;;;0.30;;
39362;SDS011;25088;43.238;23.110;2023-02-01T16:52:18;0.30;;;0.30;;
39362;SDS011;25088;43.238;23.110;2023-02-01T16:54:48;0.20;;;0.20;;
39362;SDS011;25088;43.238;23.110;2023-02-01T16:57:15;0.20;;;0.20;;
39362;SDS011;25088;43.238;23.110;2023-02-01T16:59:43;0.20;;;0.20;;
39362;SDS011;25088;43.238;23.110;2023-02-01T17:02:15;0.20;;;0.20;;
39362;SDS011;25088;43.238;23.110;2023-02-01T17:04:44;0.22;;;0.22;;
39362;SDS011;25088;43.238;23.110;2023-02-01T17:07:13;0.20;;;0.20;;
39362;SDS011;25088;43.238;23.110;2023-02-01T17:09:41;0.20;;;0.20;;
39362;SDS011;25088;43.238;23.110;2023-02-01T17:12:09;0.20;;;0.20;;
39362;SDS011;25088;43.238;23.110;2023-02-01T17:14:46;0.20;;;0.20;;
39362;SDS011;25088;43.238;23.110;2023-02-01T17:17:11;0.20;;;0.20;;
39362;SDS011;25088;43.238;23.110;2023-02-01T17:19:37;0.20;;;0.20;;
39362;SDS011;25088;43.238;23.110;2023-02-01T17:22:03;0.20;;;0.20;;
39362;SDS011;25088;43.238;23.110;2023-02-01T17:24:29;0.20;;;0.20;;
39362;SDS011;25088;43.238;23.110;2023-02-01T17:26:56;0.20;;;0.20;;
39362;SDS011;25088;43.238;23.110;2023-02-01T17:29:22;0.20;;;0.20;;
39362;SDS011;25088;43.238;23.110;2023-02-01T17:31:49;0.20;;;0.20;;
39362;SDS011;25088;43.238;23.110;2023-02-01T17:34:17;0.20;;;0.20;;
39362;SDS011;25088;43.238;23.110;2023-02-01T17:36:43;0.30;;;0.30;;
39362;SDS011;25088;43.238;23.110;2023-02-01T17:39:10;0.20;;;0.20;;
39362;SDS011;25088;43.238;23.110;2023-02-01T17:41:56;0.30;;;0.30;;
39362;SDS011;25088;43.238;23.110;2023-02-01T17:44:21;0.22;;;0.22;;
39362;SDS011;25088;43.238;23.110;2023-02-01T17:46:47;0.30;;;0.30;;
39362;SDS011;25088;43.238;23.110;2023-02-01T17:49:12;0.30;;;0.30;;